createdAt,value
2018-02-15T00:00:59.210Z,-2.35
2018-02-15T00:03:25.882Z,-2.38
2018-02-15T00:05:52.631Z,-2.50
2018-02-15T00:08:20.103Z,-2.57
2018-02-15T00:10:47.527Z,-2.66
2018-02-15T00:13:14.202Z,-2.64
2018-02-15T00:15:41.643Z,-2.77
2018-02-15T00:18:09.098Z,-2.90
2018-02-15T00:20:35.808Z,-2.91
2018-02-15T00:23:02.510Z,-2.83
2018-02-15T00:25:29.904Z,-2.76
2018-02-15T00:27:56.794Z,-2.81
2018-02-15T00:30:24.205Z,-2.89
2018-02-15T00:32:50.931Z,-2.93
2018-02-15T00:35:18.329Z,-2.97
2018-02-15T00:37:45.035Z,-2.93
2018-02-15T00:40:12.454Z,-2.94
2018-02-15T00:42:39.175Z,-2.65
2018-02-15T00:45:05.908Z,-2.67
2018-02-15T00:47:32.559Z,-2.76
2018-02-15T00:49:59.278Z,-2.69
2018-02-15T00:52:25.956Z,-2.82
2018-02-15T00:54:52.687Z,-2.83
2018-02-15T00:57:19.384Z,-2.71
2018-02-15T00:59:46.798Z,-2.84
2018-02-15T01:02:13.500Z,-3.02
2018-02-15T01:04:40.996Z,-2.99
2018-02-15T01:07:07.676Z,-3.11
2018-02-15T01:09:41.245Z,-3.16
2018-02-15T01:12:07.939Z,-3.29
2018-02-15T01:14:35.373Z,-3.30
2018-02-15T01:17:02.084Z,-3.34
2018-02-15T01:19:28.780Z,-3.30
2018-02-15T01:21:56.236Z,-3.35
2018-02-15T01:24:22.922Z,-3.32
2018-02-15T01:26:49.600Z,-3.34
2018-02-15T01:29:16.296Z,-3.40
2018-02-15T01:31:42.986Z,-3.42
2018-02-15T01:34:09.718Z,-3.51
2018-02-15T01:36:36.414Z,-3.55
2018-02-15T01:39:03.901Z,-3.57
2018-02-15T01:41:30.582Z,-3.60
2018-02-15T01:43:57.246Z,-3.62
2018-02-15T01:46:23.918Z,-3.71
2018-02-15T01:48:50.603Z,-3.73
2018-02-15T01:51:17.257Z,-3.80
2018-02-15T01:53:43.995Z,-3.88
2018-02-15T01:56:10.643Z,-3.86
2018-02-15T01:58:37.401Z,-3.88
2018-02-15T02:01:04.054Z,-3.85
2018-02-15T02:03:31.500Z,-3.81
2018-02-15T02:05:58.169Z,-3.90
2018-02-15T02:08:25.578Z,-3.82
2018-02-15T02:10:52.253Z,-3.81
2018-02-15T02:13:19.668Z,-3.84
2018-02-15T02:15:46.377Z,-3.93
2018-02-15T02:18:13.839Z,-3.99
2018-02-15T02:20:40.511Z,-4.04
2018-02-15T02:23:07.186Z,-4.00
2018-02-15T02:25:33.869Z,-4.03
2018-02-15T02:28:00.565Z,-4.04
2018-02-15T02:30:27.259Z,-4.10
2018-02-15T02:32:53.942Z,-4.15
2018-02-15T02:35:20.634Z,-4.00
2018-02-15T02:37:48.071Z,-4.01
2018-02-15T02:40:14.745Z,-3.99
2018-02-15T02:42:41.446Z,-3.90
2018-02-15T02:45:08.105Z,-4.00
2018-02-15T02:47:35.779Z,-4.18
2018-02-15T02:50:03.289Z,-4.26
2018-02-15T02:52:36.940Z,-4.38
2018-02-15T02:55:04.457Z,-4.38
2018-02-15T02:57:31.107Z,-4.38
2018-02-15T02:59:57.790Z,-4.33
2018-02-15T03:02:25.202Z,-4.33
2018-02-15T03:04:51.874Z,-4.43
2018-02-15T03:07:18.668Z,-4.46
2018-02-15T03:09:45.363Z,-4.44
2018-02-15T03:12:12.077Z,-4.54
2018-02-15T03:14:38.775Z,-4.55
2018-02-15T03:17:06.183Z,-4.62
2018-02-15T03:19:32.862Z,-4.65
2018-02-15T03:21:59.527Z,-4.51
2018-02-15T03:24:33.825Z,-4.31
2018-02-15T03:27:00.516Z,-4.33
2018-02-15T03:29:27.204Z,-4.40
2018-02-15T03:31:53.876Z,-4.49
2018-02-15T03:34:21.276Z,-4.46
2018-02-15T03:36:47.940Z,-4.32
2018-02-15T03:39:14.641Z,-4.39
2018-02-15T03:41:41.314Z,-4.52
2018-02-15T03:44:07.972Z,-4.61
2018-02-15T03:46:34.619Z,-4.67
2018-02-15T03:49:01.322Z,-4.62
2018-02-15T03:51:27.984Z,-4.65
2018-02-15T03:53:54.649Z,-4.73
2018-02-15T03:56:21.334Z,-4.70
2018-02-15T03:58:48.059Z,-4.69
2018-02-15T04:01:15.494Z,-4.63
2018-02-15T04:03:42.903Z,-4.60
2018-02-15T04:06:09.591Z,-4.52
2018-02-15T04:08:36.264Z,-4.49
2018-02-15T04:11:03.668Z,-4.56
2018-02-15T04:13:30.373Z,-4.53
2018-02-15T04:15:57.786Z,-4.59
2018-02-15T04:18:24.449Z,-4.66
2018-02-15T04:20:52.668Z,-4.68
2018-02-15T04:23:19.361Z,-4.81
2018-02-15T04:25:46.051Z,-4.93
2018-02-15T04:28:12.738Z,-4.96
2018-02-15T04:30:39.418Z,-4.79
2018-02-15T04:33:06.919Z,-4.80
2018-02-15T04:35:33.623Z,-4.86
2018-02-15T04:38:01.036Z,-4.91
2018-02-15T04:40:27.739Z,-4.95
2018-02-15T04:42:54.519Z,-5.01
2018-02-15T04:45:21.212Z,-5.02
2018-02-15T04:47:48.627Z,-4.95
2018-02-15T04:50:15.296Z,-4.92
2018-02-15T04:52:41.973Z,-4.94
2018-02-15T04:55:09.397Z,-4.90
2018-02-15T04:57:36.087Z,-4.99
2018-02-15T05:00:02.878Z,-5.07
2018-02-15T05:02:29.542Z,-5.22
2018-02-15T05:04:56.215Z,-5.24
2018-02-15T05:07:22.899Z,-5.11
2018-02-15T05:09:49.580Z,-5.04
2018-02-15T05:12:16.400Z,-5.08
2018-02-15T05:14:43.104Z,-5.13
2018-02-15T05:17:09.830Z,-5.13
2018-02-15T05:19:36.547Z,-5.12
2018-02-15T05:22:04.003Z,-5.12
2018-02-15T05:24:32.494Z,-5.27
2018-02-15T05:26:59.878Z,-5.32
2018-02-15T05:29:26.581Z,-5.34
2018-02-15T05:31:53.254Z,-5.32
2018-02-15T05:34:20.694Z,-5.32
2018-02-15T05:36:47.371Z,-5.31
2018-02-15T05:39:14.063Z,-5.33
2018-02-15T05:41:40.729Z,-5.38
2018-02-15T05:44:07.435Z,-5.51
2018-02-15T05:46:34.182Z,-5.46
2018-02-15T05:49:00.837Z,-5.41
2018-02-15T05:51:27.528Z,-5.52
2018-02-15T05:53:54.439Z,-5.58
2018-02-15T05:56:21.209Z,-5.58
2018-02-15T05:58:48.649Z,-5.48
2018-02-15T06:01:15.345Z,-5.35
2018-02-15T06:03:42.040Z,-5.44
2018-02-15T06:06:08.724Z,-5.50
2018-02-15T06:08:35.409Z,-5.57
2018-02-15T06:11:02.842Z,-5.46
2018-02-15T06:13:29.504Z,-5.32
2018-02-15T06:15:56.232Z,-5.18
2018-02-15T06:18:22.923Z,-5.17
2018-02-15T06:20:50.351Z,-5.03
2018-02-15T06:23:17.017Z,-3.78
2018-02-15T06:25:43.738Z,-2.43
2018-02-15T06:28:10.411Z,-1.64
2018-02-15T06:30:37.899Z,-0.94
2018-02-15T06:33:04.569Z,-0.52
2018-02-15T06:35:31.820Z,-0.45
2018-02-15T06:37:58.491Z,1.19
2018-02-15T06:40:25.232Z,1.22
2018-02-15T06:42:51.969Z,2.22
2018-02-15T06:45:18.697Z,2.83
2018-02-15T06:47:45.358Z,2.78
2018-02-15T06:50:13.028Z,3.28
2018-02-15T06:52:39.735Z,2.99
2018-02-15T06:55:06.427Z,3.24
2018-02-15T06:57:33.184Z,4.50
2018-02-15T07:00:00.658Z,5.80
2018-02-15T07:02:27.432Z,6.24
2018-02-15T07:05:09.076Z,7.36
2018-02-15T07:07:35.855Z,7.65
2018-02-15T07:10:02.578Z,8.22
2018-02-15T07:12:30.036Z,7.32
2018-02-15T07:14:59.557Z,8.50
2018-02-15T07:17:26.269Z,7.58
2018-02-15T07:19:53.795Z,8.76
2018-02-15T07:22:20.523Z,8.83
2018-02-15T07:24:47.265Z,9.06
2018-02-15T07:27:14.039Z,9.56
2018-02-15T07:29:40.724Z,9.67
2018-02-15T07:32:09.055Z,10.68
2018-02-15T07:34:37.766Z,9.98
2018-02-15T07:37:06.136Z,11.51
2018-02-15T07:39:35.466Z,10.22
2018-02-15T07:42:03.805Z,8.49
2018-02-15T07:44:32.170Z,8.80
2018-02-15T07:47:00.574Z,8.87
2018-02-15T07:49:28.949Z,8.28
2018-02-15T07:51:57.311Z,11.07
2018-02-15T07:54:25.690Z,11.09
2018-02-15T07:56:54.118Z,11.93
2018-02-15T07:59:22.481Z,11.50
2018-02-15T08:01:50.834Z,11.85
2018-02-15T08:04:19.302Z,12.82
2018-02-15T08:06:47.660Z,12.16
2018-02-15T08:09:16.011Z,11.80
2018-02-15T08:11:44.378Z,12.47
2018-02-15T08:14:12.748Z,12.52
2018-02-15T08:16:41.061Z,12.58
2018-02-15T08:19:09.384Z,12.77
2018-02-15T08:21:37.753Z,14.46
2018-02-15T08:24:06.117Z,13.91
2018-02-15T08:26:34.485Z,15.37
2018-02-15T08:29:02.808Z,13.99
2018-02-15T08:31:31.138Z,13.13
2018-02-15T08:33:59.462Z,12.53
2018-02-15T08:36:27.788Z,13.25
2018-02-15T08:38:56.146Z,13.45
2018-02-15T08:41:24.460Z,17.29
2018-02-15T08:43:52.762Z,17.85
2018-02-15T08:46:21.108Z,15.08
2018-02-15T08:48:49.453Z,16.00
2018-02-15T08:51:17.779Z,16.87
2018-02-15T08:53:46.146Z,16.30
2018-02-15T08:56:14.469Z,14.57
2018-02-15T08:58:41.198Z,15.70
2018-02-15T09:01:07.919Z,14.58
2018-02-15T09:03:36.254Z,14.16
2018-02-15T09:06:04.658Z,15.50
2018-02-15T09:08:33.058Z,16.03
2018-02-15T09:11:01.430Z,18.34
2018-02-15T09:13:29.780Z,17.71
2018-02-15T09:15:58.122Z,16.82
2018-02-15T09:18:26.557Z,18.37
2018-02-15T09:20:53.237Z,17.44
2018-02-15T09:23:20.702Z,18.56
2018-02-15T09:25:48.130Z,18.24
2018-02-15T09:28:14.805Z,17.40
2018-02-15T09:30:43.301Z,16.36
2018-02-15T09:33:11.628Z,16.13
2018-02-15T09:35:42.026Z,17.36
2018-02-15T09:38:10.368Z,15.75
2018-02-15T09:40:38.685Z,15.58
2018-02-15T09:43:07.033Z,15.79
2018-02-15T09:45:35.361Z,16.10
2018-02-15T09:48:03.701Z,16.58
2018-02-15T09:50:32.064Z,17.20
2018-02-15T09:53:00.418Z,16.12
2018-02-15T09:55:28.752Z,17.28
2018-02-15T09:57:57.095Z,17.07
2018-02-15T10:00:25.427Z,16.56
2018-02-15T10:02:55.408Z,14.15
2018-02-15T10:05:23.726Z,14.34
2018-02-15T10:07:52.069Z,15.95
2018-02-15T10:10:21.467Z,14.43
2018-02-15T10:12:48.179Z,13.59
2018-02-15T10:15:14.908Z,13.37
2018-02-15T10:17:43.309Z,14.90
2018-02-15T10:20:10.025Z,14.37
2018-02-15T10:22:38.389Z,15.75
2018-02-15T10:25:06.753Z,15.97
2018-02-15T10:27:35.128Z,15.18
2018-02-15T10:30:03.504Z,15.10
2018-02-15T10:32:31.831Z,14.48
2018-02-15T10:35:00.187Z,12.28
2018-02-15T10:37:28.546Z,14.60
2018-02-15T10:39:56.931Z,15.59
2018-02-15T10:42:25.253Z,16.17
2018-02-15T10:44:53.576Z,16.50
2018-02-15T10:47:22.025Z,17.15
2018-02-15T10:49:50.398Z,17.80
2018-02-15T10:52:18.895Z,17.47
2018-02-15T10:54:47.262Z,18.92
2018-02-15T10:57:16.402Z,18.76
2018-02-15T10:59:45.104Z,18.31
2018-02-15T11:02:19.603Z,18.85
2018-02-15T11:04:53.996Z,18.75
2018-02-15T11:07:22.378Z,18.13
2018-02-15T11:09:50.712Z,18.04
2018-02-15T11:12:19.056Z,18.04
2018-02-15T11:14:48.561Z,17.30
2018-02-15T11:17:16.907Z,18.57
2018-02-15T11:19:45.274Z,18.74
2018-02-15T11:22:14.550Z,17.99
2018-02-15T11:24:44.002Z,17.87
2018-02-15T11:27:12.392Z,17.80
2018-02-15T11:29:40.752Z,17.24
2018-02-15T11:32:09.148Z,17.21
2018-02-15T11:34:37.294Z,17.09
2018-02-15T11:37:04.734Z,18.28
2018-02-15T11:39:33.051Z,18.80
2018-02-15T11:42:01.384Z,19.14
2018-02-15T11:44:30.779Z,19.12
2018-02-15T11:47:00.096Z,19.46
2018-02-15T11:49:29.431Z,17.61
2018-02-15T11:51:57.801Z,17.96
2018-02-15T11:54:26.130Z,17.13
2018-02-15T11:56:54.482Z,16.67
2018-02-15T11:59:22.806Z,17.66
2018-02-15T12:01:49.523Z,16.81
2018-02-15T12:04:16.311Z,18.31
2018-02-15T12:06:43.024Z,18.04
2018-02-15T12:09:09.967Z,18.15
2018-02-15T12:11:37.799Z,15.20
2018-02-15T12:14:05.349Z,17.35
2018-02-15T12:16:32.055Z,15.09
2018-02-15T12:18:58.766Z,15.87
2018-02-15T12:21:25.739Z,15.46
2018-02-15T12:23:52.424Z,14.56
2018-02-15T12:26:19.360Z,14.43
2018-02-15T12:28:46.085Z,14.73
2018-02-15T12:31:12.827Z,15.31
2018-02-15T12:33:39.533Z,16.26
2018-02-15T12:36:06.981Z,16.53
2018-02-15T12:38:34.555Z,15.24
2018-02-15T12:41:03.309Z,14.40
2018-02-15T12:43:30.003Z,13.93
2018-02-15T12:45:56.731Z,13.21
2018-02-15T12:48:24.273Z,12.77
2018-02-15T12:50:50.995Z,13.90
2018-02-15T12:53:17.704Z,13.50
2018-02-15T12:55:44.442Z,13.39
2018-02-15T12:58:11.182Z,14.38
2018-02-15T13:00:37.866Z,14.35
2018-02-15T13:03:04.586Z,13.56
2018-02-15T13:05:31.387Z,14.30
2018-02-15T13:07:58.900Z,12.82
2018-02-15T13:10:25.599Z,12.81
2018-02-15T13:13:11.175Z,13.76
2018-02-15T13:15:56.856Z,12.24
2018-02-15T13:18:23.618Z,11.45
2018-02-15T13:20:51.981Z,10.35
2018-02-15T13:23:20.409Z,10.12
2018-02-15T13:25:48.892Z,9.70
2018-02-15T13:28:29.609Z,9.82
2018-02-15T13:30:58.053Z,9.92
2018-02-15T13:33:26.431Z,10.36
2018-02-15T13:35:54.875Z,10.38
2018-02-15T13:38:23.310Z,9.73
2018-02-15T13:40:51.737Z,8.31
2018-02-15T13:43:20.092Z,7.42
2018-02-15T13:45:47.960Z,7.41
2018-02-15T13:48:14.706Z,7.85
2018-02-15T13:50:41.498Z,7.31
2018-02-15T13:53:08.289Z,6.92
2018-02-15T13:55:34.993Z,7.06
2018-02-15T13:58:01.727Z,7.48
2018-02-15T14:00:29.282Z,7.44
2018-02-15T14:02:58.901Z,7.49
2018-02-15T14:05:26.370Z,6.99
2018-02-15T14:07:53.824Z,6.85
2018-02-15T14:10:21.307Z,6.90
2018-02-15T14:12:48.068Z,7.06
2018-02-15T14:15:14.836Z,6.91
2018-02-15T14:17:41.616Z,6.68
2018-02-15T14:20:09.145Z,6.54
2018-02-15T14:22:35.878Z,6.32
2018-02-15T14:25:02.652Z,6.26
2018-02-15T14:27:29.529Z,6.15
2018-02-15T14:29:57.010Z,6.10
2018-02-15T14:32:23.748Z,6.20
2018-02-15T14:34:50.487Z,6.08
2018-02-15T14:37:18.015Z,5.96
2018-02-15T14:39:44.839Z,5.93
2018-02-15T14:42:11.579Z,5.86
2018-02-15T14:44:38.297Z,5.96
2018-02-15T14:47:07.017Z,5.81
2018-02-15T14:49:33.779Z,5.41
2018-02-15T14:52:00.587Z,5.13
2018-02-15T14:54:27.564Z,5.14
2018-02-15T14:56:54.249Z,5.25
2018-02-15T14:59:21.774Z,5.21
2018-02-15T15:01:48.556Z,5.20
2018-02-15T15:04:16.040Z,4.89
2018-02-15T15:06:42.767Z,5.02
2018-02-15T15:09:10.293Z,4.91
2018-02-15T15:11:37.032Z,4.75
2018-02-15T15:14:03.760Z,4.70
2018-02-15T15:16:30.456Z,4.59
2018-02-15T15:18:57.906Z,4.29
2018-02-15T15:21:24.594Z,4.20
2018-02-15T15:23:51.290Z,4.26
2018-02-15T15:26:17.998Z,4.09
2018-02-15T15:28:44.742Z,4.02
2018-02-15T15:31:11.544Z,3.83
2018-02-15T15:33:39.137Z,3.86
2018-02-15T15:36:05.822Z,3.77
2018-02-15T15:38:32.565Z,3.77
2018-02-15T15:40:59.233Z,3.63
2018-02-15T15:43:27.174Z,3.67
2018-02-15T15:45:53.887Z,3.65
2018-02-15T15:48:20.651Z,3.60
2018-02-15T15:50:47.350Z,3.56
2018-02-15T15:53:14.168Z,3.46
2018-02-15T15:55:40.909Z,3.41
2018-02-15T15:58:07.653Z,3.39
2018-02-15T16:00:34.357Z,3.30
2018-02-15T16:03:01.066Z,3.25
2018-02-15T16:05:28.498Z,3.22
2018-02-15T16:07:55.272Z,3.12
2018-02-15T16:10:22.695Z,3.06
2018-02-15T16:12:49.458Z,2.94
2018-02-15T16:15:19.108Z,2.92
2018-02-15T16:17:45.824Z,2.94
2018-02-15T16:20:28.202Z,2.84
2018-02-15T16:22:55.089Z,2.77
2018-02-15T16:25:22.517Z,2.71
2018-02-15T16:27:51.346Z,2.65
2018-02-15T16:30:18.079Z,2.64
2018-02-15T16:32:45.567Z,2.70
2018-02-15T16:35:12.353Z,2.67
2018-02-15T16:37:39.075Z,2.60
2018-02-15T16:40:05.808Z,2.65
2018-02-15T16:42:32.506Z,2.59
2018-02-15T16:44:59.205Z,2.55
2018-02-15T16:47:25.910Z,2.79
2018-02-15T16:49:53.414Z,2.72
2018-02-15T16:52:20.143Z,2.58
2018-02-15T16:54:46.813Z,2.47
2018-02-15T16:57:13.593Z,2.45
2018-02-15T16:59:41.027Z,2.44
2018-02-15T17:02:07.764Z,2.39
2018-02-15T17:04:34.517Z,2.40
2018-02-15T17:07:01.262Z,2.41
2018-02-15T17:09:28.005Z,2.34
2018-02-15T17:11:54.798Z,2.41
2018-02-15T17:14:21.512Z,2.48
2018-02-15T17:16:49.000Z,2.43
2018-02-15T17:19:15.700Z,2.38
2018-02-15T17:21:42.458Z,2.38
2018-02-15T17:24:09.178Z,2.54
2018-02-15T17:26:35.876Z,2.43
2018-02-15T17:29:02.619Z,2.40
2018-02-15T17:31:29.339Z,2.32
2018-02-15T17:33:56.200Z,2.43
2018-02-15T17:36:23.656Z,2.45
2018-02-15T17:38:51.087Z,2.46
2018-02-15T17:41:18.776Z,2.45
2018-02-15T17:43:46.206Z,2.50
2018-02-15T17:46:12.972Z,2.56
2018-02-15T17:48:39.673Z,2.45
2018-02-15T17:51:06.399Z,2.36
2018-02-15T17:53:33.184Z,2.30
2018-02-15T17:55:59.873Z,2.32
2018-02-15T17:58:27.314Z,2.28
2018-02-15T18:00:54.044Z,2.31
2018-02-15T18:03:20.784Z,2.29
2018-02-15T18:05:47.457Z,2.27
2018-02-15T18:08:14.931Z,2.15
2018-02-15T18:10:41.672Z,2.12
2018-02-15T18:13:09.315Z,2.14
2018-02-15T18:15:37.125Z,2.16
2018-02-15T18:18:03.866Z,2.15
2018-02-15T18:20:30.653Z,2.06
2018-02-15T18:22:57.523Z,2.00
2018-02-15T18:25:24.199Z,2.04
2018-02-15T18:27:51.031Z,1.99
2018-02-15T18:30:17.758Z,1.92
2018-02-15T18:32:45.171Z,1.90
2018-02-15T18:35:11.850Z,1.89
2018-02-15T18:37:38.599Z,1.83
2018-02-15T18:40:05.306Z,1.79
2018-02-15T18:42:31.958Z,1.79
2018-02-15T18:44:58.662Z,1.83
2018-02-15T18:47:25.392Z,1.82
2018-02-15T18:49:52.150Z,1.86
2018-02-15T18:52:18.895Z,1.89
2018-02-15T18:54:45.658Z,1.86
2018-02-15T18:57:12.402Z,1.86
2018-02-15T18:59:39.189Z,1.90
2018-02-15T19:02:05.987Z,1.88
2018-02-15T19:04:32.737Z,1.85
2018-02-15T19:06:59.469Z,1.79
2018-02-15T19:09:26.222Z,1.82
2018-02-15T19:11:52.924Z,1.86
2018-02-15T19:14:20.451Z,1.86
2018-02-15T19:16:47.185Z,1.87
2018-02-15T19:19:13.930Z,1.86
2018-02-15T19:21:40.677Z,1.86
2018-02-15T19:24:07.413Z,1.89
2018-02-15T19:26:34.154Z,1.89
2018-02-15T19:29:00.870Z,1.87
2018-02-15T19:31:27.614Z,1.82
2018-02-15T19:33:54.371Z,1.71
2018-02-15T19:36:21.116Z,1.64
2018-02-15T19:38:47.854Z,1.69
2018-02-15T19:41:14.533Z,1.74
2018-02-15T19:43:41.298Z,1.75
2018-02-15T19:46:08.215Z,1.80
2018-02-15T19:48:34.958Z,1.83
2018-02-15T19:51:01.688Z,1.85
2018-02-15T19:53:28.494Z,1.99
2018-02-15T19:55:55.206Z,2.01
2018-02-15T19:58:21.931Z,2.08
2018-02-15T20:00:48.697Z,2.05
2018-02-15T20:03:15.671Z,1.97
2018-02-15T20:05:43.139Z,2.00
2018-02-15T20:08:09.911Z,1.99
2018-02-15T20:10:36.775Z,1.95
2018-02-15T20:13:03.663Z,1.96
2018-02-15T20:15:36.445Z,1.94
2018-02-15T20:18:04.036Z,1.94
2018-02-15T20:20:31.526Z,1.91
2018-02-15T20:22:58.280Z,1.85
2018-02-15T20:25:25.093Z,1.86
2018-02-15T20:27:58.621Z,1.87
2018-02-15T20:30:25.338Z,1.84
2018-02-15T20:32:52.785Z,1.77
2018-02-15T20:35:19.470Z,1.79
2018-02-15T20:51:11.012Z,1.86
2018-02-15T20:53:43.825Z,1.95
2018-02-15T20:56:10.564Z,1.94
2018-02-15T20:58:37.348Z,1.95
2018-02-15T21:01:04.837Z,1.91
2018-02-15T21:03:31.588Z,1.83
2018-02-15T21:05:58.355Z,1.78
2018-02-15T21:08:25.067Z,1.77
2018-02-15T21:10:51.813Z,1.81
2018-02-15T21:13:18.559Z,1.85
2018-02-15T21:15:45.299Z,1.83
2018-02-15T21:18:12.093Z,1.89
2018-02-15T21:20:38.838Z,2.01
2018-02-15T21:23:05.645Z,1.97
2018-02-15T21:25:32.371Z,1.97
2018-02-15T21:27:59.182Z,1.90
2018-02-15T21:30:26.098Z,1.97
2018-02-15T21:32:52.829Z,1.90
2018-02-15T21:35:19.650Z,1.83
2018-02-15T21:37:46.882Z,1.82
2018-02-15T21:40:13.730Z,1.79
2018-02-15T21:42:40.528Z,1.85
2018-02-15T21:45:07.240Z,1.93
2018-02-15T21:47:34.827Z,1.89
2018-02-15T21:50:01.592Z,1.90
2018-02-15T21:52:28.344Z,1.80
2018-02-15T21:54:55.345Z,1.72
2018-02-15T21:57:23.184Z,1.80
2018-02-15T21:59:49.972Z,1.81
2018-02-15T22:02:23.780Z,1.86
2018-02-15T22:04:50.567Z,1.66
2018-02-15T22:07:17.477Z,1.70
2018-02-15T22:09:44.177Z,1.71
2018-02-15T22:12:10.907Z,1.71
2018-02-15T22:14:37.645Z,1.76
2018-02-15T22:17:04.495Z,1.79
2018-02-15T22:19:31.180Z,1.83
2018-02-15T22:21:58.639Z,1.78
2018-02-15T22:24:26.126Z,1.77
2018-02-15T22:26:53.022Z,1.91
2018-02-15T22:29:19.751Z,1.83
2018-02-15T22:31:46.530Z,1.83
2018-02-15T22:34:14.058Z,1.79
2018-02-15T22:36:40.955Z,1.89
2018-02-15T22:39:07.654Z,1.84
2018-02-15T22:41:34.423Z,1.73
2018-02-15T22:44:01.127Z,1.68
2018-02-15T22:46:27.857Z,1.64
2018-02-15T22:48:54.561Z,1.63
2018-02-15T22:51:22.137Z,1.63
2018-02-15T22:53:49.551Z,1.62
2018-02-15T22:56:16.320Z,1.59
2018-02-15T22:58:43.029Z,1.64
2018-02-15T23:01:09.717Z,1.62
2018-02-15T23:03:37.266Z,1.59
2018-02-15T23:06:05.988Z,1.62
2018-02-15T23:08:33.584Z,1.61
2018-02-15T23:11:00.348Z,1.53
2018-02-15T23:13:27.141Z,1.45
2018-02-15T23:15:53.903Z,1.36
2018-02-15T23:18:20.607Z,1.27
2018-02-15T23:20:47.345Z,1.10
2018-02-15T23:23:14.156Z,1.04
2018-02-15T23:25:40.832Z,0.95
2018-02-15T23:28:07.705Z,0.99
2018-02-15T23:30:35.216Z,1.01
2018-02-15T23:33:01.984Z,0.85
2018-02-15T23:35:29.438Z,0.79
2018-02-15T23:37:56.149Z,0.75
2018-02-15T23:40:22.865Z,0.78
2018-02-15T23:42:49.649Z,0.81
2018-02-15T23:45:16.343Z,0.86
2018-02-15T23:47:43.787Z,0.80
2018-02-15T23:50:10.503Z,0.82
2018-02-15T23:52:38.260Z,0.79
2018-02-15T23:55:05.006Z,0.77
2018-02-15T23:57:31.750Z,0.62
2018-02-15T23:59:58.436Z,0.50
